Duque de Caxias, Brazil
Current Conditions -  °F | °C
As of 1:00 AM on Tuesday 21 Oct 2014 (Local Time) from SBGL Reporting Station
Light Rain Light Rain  
Wind Chill: 72°   Ceiling: 2500
Heat Index: 72°   Visibility: 3mi
Dew Point: 64°   Wind: 6mph
Humidity: 78%   Direction: 230°SW
Pressure: 30"   Gusts: NA
Location:  22.77°S, 43.31°W
Report Text: SBGL 210400Z 23005KT 5000 -RA BR SCT010 OVC025 22/18 Q1016
Loading
Personal Weather Stations






























Interactive Weather Map
Tropical Storm Tracking
New forecast layout! Learn more

10-Day Weather Forecast

Advertisements
Track Severe Weather on mobile